sensor_id;sensor_type;location;lat;lon;timestamp;P1;durP1;ratioP1;P2;durP2;ratioP2
68888;SDS011;55930;47.412;8.790;2023-06-01T00:01:46;8.17;;;3.47;;
68888;SDS011;55930;47.412;8.790;2023-06-01T00:05:07;7.93;;;3.40;;
68888;SDS011;55930;47.412;8.790;2023-06-01T00:08:27;5.70;;;3.40;;
68888;SDS011;55930;47.412;8.790;2023-06-01T00:11:50;13.18;;;3.63;;
68888;SDS011;55930;47.412;8.790;2023-06-01T00:15:10;5.50;;;3.43;;
68888;SDS011;55930;47.412;8.790;2023-06-01T00:18:31;6.53;;;3.53;;
68888;SDS011;55930;47.412;8.790;2023-06-01T00:21:54;7.78;;;3.75;;
68888;SDS011;55930;47.412;8.790;2023-06-01T00:25:15;7.05;;;3.97;;
68888;SDS011;55930;47.412;8.790;2023-06-01T00:28:35;5.23;;;3.50;;
68888;SDS011;55930;47.412;8.790;2023-06-01T00:31:56;7.53;;;4.40;;
68888;SDS011;55930;47.412;8.790;2023-06-01T00:35:16;7.75;;;4.05;;
68888;SDS011;55930;47.412;8.790;2023-06-01T00:38:37;6.20;;;3.70;;
68888;SDS011;55930;47.412;8.790;2023-06-01T00:42:00;6.78;;;3.88;;
68888;SDS011;55930;47.412;8.790;2023-06-01T00:45:21;6.63;;;4.10;;
68888;SDS011;55930;47.412;8.790;2023-06-01T00:48:42;8.60;;;3.93;;
68888;SDS011;55930;47.412;8.790;2023-06-01T00:52:04;7.80;;;3.80;;
68888;SDS011;55930;47.412;8.790;2023-06-01T00:55:25;8.35;;;4.60;;
68888;SDS011;55930;47.412;8.790;2023-06-01T00:58:46;8.30;;;3.40;;
68888;SDS011;55930;47.412;8.790;2023-06-01T01:02:07;8.03;;;3.70;;
68888;SDS011;55930;47.412;8.790;2023-06-01T01:05:28;5.38;;;3.50;;
68888;SDS011;55930;47.412;8.790;2023-06-01T01:08:54;8.35;;;3.75;;
68888;SDS011;55930;47.412;8.790;2023-06-01T01:12:30;8.98;;;4.07;;
68888;SDS011;55930;47.412;8.790;2023-06-01T01:16:05;9.23;;;3.97;;
68888;SDS011;55930;47.412;8.790;2023-06-01T01:23:06;9.70;;;4.57;;
68888;SDS011;55930;47.412;8.790;2023-06-01T01:26:29;8.80;;;4.53;;
68888;SDS011;55930;47.412;8.790;2023-06-01T01:29:57;7.25;;;4.03;;
68888;SDS011;55930;47.412;8.790;2023-06-01T01:33:26;8.60;;;4.00;;
68888;SDS011;55930;47.412;8.790;2023-06-01T01:36:47;6.88;;;4.38;;
68888;SDS011;55930;47.412;8.790;2023-06-01T01:40:08;10.10;;;4.20;;
68888;SDS011;55930;47.412;8.790;2023-06-01T01:43:29;6.60;;;4.00;;
68888;SDS011;55930;47.412;8.790;2023-06-01T01:46:57;7.32;;;4.03;;
68888;SDS011;55930;47.412;8.790;2023-06-01T01:50:26;6.65;;;4.22;;
68888;SDS011;55930;47.412;8.790;2023-06-01T01:53:52;6.78;;;4.20;;
68888;SDS011;55930;47.412;8.790;2023-06-01T01:57:15;8.35;;;4.60;;
68888;SDS011;55930;47.412;8.790;2023-06-01T02:00:37;7.95;;;4.40;;
68888;SDS011;55930;47.412;8.790;2023-06-01T02:04:06;7.43;;;4.40;;
68888;SDS011;55930;47.412;8.790;2023-06-01T02:07:27;8.05;;;4.43;;
68888;SDS011;55930;47.412;8.790;2023-06-01T02:10:47;9.13;;;4.13;;
68888;SDS011;55930;47.412;8.790;2023-06-01T02:14:08;9.00;;;4.57;;
68888;SDS011;55930;47.412;8.790;2023-06-01T02:17:28;11.53;;;5.33;;
68888;SDS011;55930;47.412;8.790;2023-06-01T02:20:49;6.87;;;4.40;;
68888;SDS011;55930;47.412;8.790;2023-06-01T02:24:09;7.50;;;4.23;;
68888;SDS011;55930;47.412;8.790;2023-06-01T02:27:29;9.47;;;4.93;;
68888;SDS011;55930;47.412;8.790;2023-06-01T02:30:50;7.50;;;4.20;;
68888;SDS011;55930;47.412;8.790;2023-06-01T02:34:11;9.60;;;4.73;;
68888;SDS011;55930;47.412;8.790;2023-06-01T02:37:31;10.70;;;4.35;;
68888;SDS011;55930;47.412;8.790;2023-06-01T02:40:52;6.65;;;4.20;;
68888;SDS011;55930;47.412;8.790;2023-06-01T02:44:12;5.73;;;4.40;;
68888;SDS011;55930;47.412;8.790;2023-06-01T02:47:33;9.20;;;4.57;;
68888;SDS011;55930;47.412;8.790;2023-06-01T02:50:53;8.47;;;4.77;;
68888;SDS011;55930;47.412;8.790;2023-06-01T02:54:13;12.20;;;4.37;;
68888;SDS011;55930;47.412;8.790;2023-06-01T02:57:34;7.18;;;4.45;;
68888;SDS011;55930;47.412;8.790;2023-06-01T03:00:55;8.27;;;4.70;;
68888;SDS011;55930;47.412;8.790;2023-06-01T03:04:17;8.40;;;4.75;;
68888;SDS011;55930;47.412;8.790;2023-06-01T03:07:38;12.85;;;5.15;;
68888;SDS011;55930;47.412;8.790;2023-06-01T03:10:59;6.17;;;4.23;;
68888;SDS011;55930;47.412;8.790;2023-06-01T03:14:22;8.77;;;5.15;;
68888;SDS011;55930;47.412;8.790;2023-06-01T03:17:42;9.67;;;4.83;;
68888;SDS011;55930;47.412;8.790;2023-06-01T03:21:05;10.63;;;5.18;;
68888;SDS011;55930;47.412;8.790;2023-06-01T03:24:26;6.97;;;4.50;;
68888;SDS011;55930;47.412;8.790;2023-06-01T03:27:47;7.53;;;4.75;;
68888;SDS011;55930;47.412;8.790;2023-06-01T03:31:08;7.60;;;5.47;;
68888;SDS011;55930;47.412;8.790;2023-06-01T03:34:31;14.02;;;5.40;;
68888;SDS011;55930;47.412;8.790;2023-06-01T03:37:52;8.20;;;4.90;;
68888;SDS011;55930;47.412;8.790;2023-06-01T03:41:13;7.23;;;5.37;;
68888;SDS011;55930;47.412;8.790;2023-06-01T03:44:33;10.13;;;5.30;;
68888;SDS011;55930;47.412;8.790;2023-06-01T03:47:53;6.33;;;5.13;;
68888;SDS011;55930;47.412;8.790;2023-06-01T03:51:14;7.93;;;4.97;;
68888;SDS011;55930;47.412;8.790;2023-06-01T03:54:34;7.97;;;5.13;;
68888;SDS011;55930;47.412;8.790;2023-06-01T03:57:55;9.57;;;5.50;;
68888;SDS011;55930;47.412;8.790;2023-06-01T04:01:15;6.03;;;4.60;;
68888;SDS011;55930;47.412;8.790;2023-06-01T04:04:40;11.50;;;5.25;;
68888;SDS011;55930;47.412;8.790;2023-06-01T04:08:00;9.07;;;5.13;;
68888;SDS011;55930;47.412;8.790;2023-06-01T04:11:21;7.37;;;4.90;;
68888;SDS011;55930;47.412;8.790;2023-06-01T04:14:47;8.90;;;4.95;;
68888;SDS011;55930;47.412;8.790;2023-06-01T04:18:08;11.23;;;5.30;;
68888;SDS011;55930;47.412;8.790;2023-06-01T04:21:28;10.80;;;5.15;;
68888;SDS011;55930;47.412;8.790;2023-06-01T04:24:49;7.43;;;4.93;;
68888;SDS011;55930;47.412;8.790;2023-06-01T04:28:09;7.67;;;5.30;;
68888;SDS011;55930;47.412;8.790;2023-06-01T04:31:30;7.67;;;4.83;;
68888;SDS011;55930;47.412;8.790;2023-06-01T04:34:52;11.75;;;6.07;;
68888;SDS011;55930;47.412;8.790;2023-06-01T04:38:13;8.07;;;5.43;;
68888;SDS011;55930;47.412;8.790;2023-06-01T04:41:34;8.60;;;5.60;;
68888;SDS011;55930;47.412;8.790;2023-06-01T04:44:55;10.32;;;5.38;;
68888;SDS011;55930;47.412;8.790;2023-06-01T04:48:18;8.95;;;5.30;;
68888;SDS011;55930;47.412;8.790;2023-06-01T04:51:40;11.35;;;5.30;;
68888;SDS011;55930;47.412;8.790;2023-06-01T04:55:01;11.88;;;5.57;;
68888;SDS011;55930;47.412;8.790;2023-06-01T04:58:24;11.45;;;6.10;;
68888;SDS011;55930;47.412;8.790;2023-06-01T05:01:44;8.63;;;5.00;;
68888;SDS011;55930;47.412;8.790;2023-06-01T05:05:05;11.93;;;5.80;;
68888;SDS011;55930;47.412;8.790;2023-06-01T05:08:27;10.50;;;5.70;;
68888;SDS011;55930;47.412;8.790;2023-06-01T05:11:48;11.55;;;5.50;;
68888;SDS011;55930;47.412;8.790;2023-06-01T05:15:09;11.13;;;6.07;;
68888;SDS011;55930;47.412;8.790;2023-06-01T05:18:31;12.52;;;5.68;;
68888;SDS011;55930;47.412;8.790;2023-06-01T05:21:54;10.50;;;6.57;;
68888;SDS011;55930;47.412;8.790;2023-06-01T05:25:14;11.27;;;6.03;;
68888;SDS011;55930;47.412;8.790;2023-06-01T05:28:35;12.17;;;6.20;;
68888;SDS011;55930;47.412;8.790;2023-06-01T05:31:55;12.90;;;6.10;;
68888;SDS011;55930;47.412;8.790;2023-06-01T05:35:16;12.23;;;6.60;;
68888;SDS011;55930;47.412;8.790;2023-06-01T05:38:36;7.70;;;5.20;;
68888;SDS011;55930;47.412;8.790;2023-06-01T05:45:27;9.83;;;5.80;;
68888;SDS011;55930;47.412;8.790;2023-06-01T05:48:47;9.43;;;5.30;;
68888;SDS011;55930;47.412;8.790;2023-06-01T05:52:08;10.80;;;5.27;;
68888;SDS011;55930;47.412;8.790;2023-06-01T05:55:29;10.55;;;5.43;;
68888;SDS011;55930;47.412;8.790;2023-06-01T05:58:49;10.90;;;5.77;;
68888;SDS011;55930;47.412;8.790;2023-06-01T06:02:13;8.13;;;5.30;;
68888;SDS011;55930;47.412;8.790;2023-06-01T06:05:34;8.32;;;5.22;;
68888;SDS011;55930;47.412;8.790;2023-06-01T06:08:54;12.10;;;5.83;;
68888;SDS011;55930;47.412;8.790;2023-06-01T06:12:15;8.75;;;5.18;;
68888;SDS011;55930;47.412;8.790;2023-06-01T06:15:35;11.30;;;4.97;;
68888;SDS011;55930;47.412;8.790;2023-06-01T06:18:56;8.83;;;5.60;;
68888;SDS011;55930;47.412;8.790;2023-06-01T06:22:16;7.93;;;5.17;;
68888;SDS011;55930;47.412;8.790;2023-06-01T06:25:37;9.80;;;5.40;;
68888;SDS011;55930;47.412;8.790;2023-06-01T06:29:00;8.32;;;5.25;;
68888;SDS011;55930;47.412;8.790;2023-06-01T06:32:21;9.40;;;4.70;;
68888;SDS011;55930;47.412;8.790;2023-06-01T06:35:42;7.22;;;4.95;;
68888;SDS011;55930;47.412;8.790;2023-06-01T06:39:02;8.98;;;4.85;;
68888;SDS011;55930;47.412;8.790;2023-06-01T06:42:23;9.40;;;5.27;;
68888;SDS011;55930;47.412;8.790;2023-06-01T06:45:44;8.68;;;5.18;;
68888;SDS011;55930;47.412;8.790;2023-06-01T06:49:21;12.23;;;5.80;;
68888;SDS011;55930;47.412;8.790;2023-06-01T06:52:41;12.17;;;5.50;;
68888;SDS011;55930;47.412;8.790;2023-06-01T06:56:02;9.83;;;5.57;;
68888;SDS011;55930;47.412;8.790;2023-06-01T06:59:22;7.97;;;5.55;;
68888;SDS011;55930;47.412;8.790;2023-06-01T07:02:42;11.13;;;5.28;;
68888;SDS011;55930;47.412;8.790;2023-06-01T07:06:07;10.82;;;5.53;;
68888;SDS011;55930;47.412;8.790;2023-06-01T07:09:28;9.30;;;5.18;;
68888;SDS011;55930;47.412;8.790;2023-06-01T07:16:08;8.13;;;5.00;;
68888;SDS011;55930;47.412;8.790;2023-06-01T07:22:55;7.55;;;5.10;;
68888;SDS011;55930;47.412;8.790;2023-06-01T07:29:36;7.97;;;4.90;;
68888;SDS011;55930;47.412;8.790;2023-06-01T07:36:18;7.93;;;5.30;;
68888;SDS011;55930;47.412;8.790;2023-06-01T07:39:39;8.68;;;4.93;;
68888;SDS011;55930;47.412;8.790;2023-06-01T07:46:21;10.85;;;5.30;;
68888;SDS011;55930;47.412;8.790;2023-06-01T07:53:02;8.30;;;5.10;;
68888;SDS011;55930;47.412;8.790;2023-06-01T07:56:23;10.65;;;5.60;;
68888;SDS011;55930;47.412;8.790;2023-06-01T07:59:48;11.35;;;5.28;;
68888;SDS011;55930;47.412;8.790;2023-06-01T08:03:09;8.93;;;5.32;;
68888;SDS011;55930;47.412;8.790;2023-06-01T08:06:29;10.52;;;5.22;;
68888;SDS011;55930;47.412;8.790;2023-06-01T08:09:56;11.32;;;5.50;;
68888;SDS011;55930;47.412;8.790;2023-06-01T08:13:18;9.80;;;5.35;;
68888;SDS011;55930;47.412;8.790;2023-06-01T08:16:42;7.80;;;4.95;;
68888;SDS011;55930;47.412;8.790;2023-06-01T08:20:03;9.40;;;5.25;;
68888;SDS011;55930;47.412;8.790;2023-06-01T08:23:30;9.90;;;5.50;;
68888;SDS011;55930;47.412;8.790;2023-06-01T08:26:54;9.82;;;5.63;;
68888;SDS011;55930;47.412;8.790;2023-06-01T08:30:16;7.35;;;5.40;;
68888;SDS011;55930;47.412;8.790;2023-06-01T08:33:36;10.05;;;5.90;;
68888;SDS011;55930;47.412;8.790;2023-06-01T08:36:57;10.38;;;5.53;;
68888;SDS011;55930;47.412;8.790;2023-06-01T08:40:17;8.77;;;5.35;;
68888;SDS011;55930;47.412;8.790;2023-06-01T08:43:37;8.38;;;4.90;;
68888;SDS011;55930;47.412;8.790;2023-06-01T08:47:01;8.88;;;5.20;;
68888;SDS011;55930;47.412;8.790;2023-06-01T08:50:22;10.30;;;5.70;;
68888;SDS011;55930;47.412;8.790;2023-06-01T08:53:44;10.13;;;5.38;;
68888;SDS011;55930;47.412;8.790;2023-06-01T08:57:08;11.43;;;6.35;;
68888;SDS011;55930;47.412;8.790;2023-06-01T09:00:29;10.02;;;5.60;;
68888;SDS011;55930;47.412;8.790;2023-06-01T09:03:50;9.95;;;6.18;;
68888;SDS011;55930;47.412;8.790;2023-06-01T09:07:12;10.90;;;5.82;;
68888;SDS011;55930;47.412;8.790;2023-06-01T09:10:33;8.98;;;5.25;;
68888;SDS011;55930;47.412;8.790;2023-06-01T09:13:54;10.45;;;5.53;;
68888;SDS011;55930;47.412;8.790;2023-06-01T09:17:15;9.55;;;5.63;;
68888;SDS011;55930;47.412;8.790;2023-06-01T09:20:46;12.90;;;6.10;;
68888;SDS011;55930;47.412;8.790;2023-06-01T09:24:19;9.70;;;5.53;;
68888;SDS011;55930;47.412;8.790;2023-06-01T09:31:12;12.40;;;5.22;;
68888;SDS011;55930;47.412;8.790;2023-06-01T09:35:14;8.63;;;5.72;;
68888;SDS011;55930;47.412;8.790;2023-06-01T09:38:34;9.60;;;5.30;;
68888;SDS011;55930;47.412;8.790;2023-06-01T09:41:56;9.98;;;4.75;;
68888;SDS011;55930;47.412;8.790;2023-06-01T09:45:22;8.10;;;5.30;;
68888;SDS011;55930;47.412;8.790;2023-06-01T09:48:43;10.10;;;5.18;;
68888;SDS011;55930;47.412;8.790;2023-06-01T09:55:25;9.27;;;4.93;;
68888;SDS011;55930;47.412;8.790;2023-06-01T09:58:46;11.18;;;6.10;;
68888;SDS011;55930;47.412;8.790;2023-06-01T10:02:07;11.70;;;6.95;;
68888;SDS011;55930;47.412;8.790;2023-06-01T10:05:31;12.18;;;5.82;;
68888;SDS011;55930;47.412;8.790;2023-06-01T10:08:53;7.97;;;5.85;;
68888;SDS011;55930;47.412;8.790;2023-06-01T10:12:16;8.30;;;5.45;;
68888;SDS011;55930;47.412;8.790;2023-06-01T10:15:37;7.72;;;5.18;;
68888;SDS011;55930;47.412;8.790;2023-06-01T10:18:57;10.52;;;5.68;;
68888;SDS011;55930;47.412;8.790;2023-06-01T10:22:18;9.18;;;5.53;;
68888;SDS011;55930;47.412;8.790;2023-06-01T10:25:43;11.93;;;5.70;;
68888;SDS011;55930;47.412;8.790;2023-06-01T10:29:07;7.10;;;4.80;;
68888;SDS011;55930;47.412;8.790;2023-06-01T10:36:07;7.25;;;5.18;;
68888;SDS011;55930;47.412;8.790;2023-06-01T10:39:31;7.55;;;5.10;;
68888;SDS011;55930;47.412;8.790;2023-06-01T10:42:52;7.60;;;5.35;;
68888;SDS011;55930;47.412;8.790;2023-06-01T10:53:26;10.53;;;5.40;;
68888;SDS011;55930;47.412;8.790;2023-06-01T11:00:42;8.88;;;5.32;;
68888;SDS011;55930;47.412;8.790;2023-06-01T11:04:04;8.13;;;5.70;;
68888;SDS011;55930;47.412;8.790;2023-06-01T11:07:34;8.43;;;5.25;;
68888;SDS011;55930;47.412;8.790;2023-06-01T11:10:59;11.70;;;5.30;;
68888;SDS011;55930;47.412;8.790;2023-06-01T11:17:43;8.73;;;5.65;;
68888;SDS011;55930;47.412;8.790;2023-06-01T11:21:06;13.20;;;4.97;;
68888;SDS011;55930;47.412;8.790;2023-06-01T11:24:31;8.88;;;4.65;;
68888;SDS011;55930;47.412;8.790;2023-06-01T11:27:55;9.90;;;4.53;;
68888;SDS011;55930;47.412;8.790;2023-06-01T11:31:17;9.73;;;4.63;;
68888;SDS011;55930;47.412;8.790;2023-06-01T11:34:41;8.73;;;4.72;;
68888;SDS011;55930;47.412;8.790;2023-06-01T11:38:03;8.32;;;4.35;;
68888;SDS011;55930;47.412;8.790;2023-06-01T11:41:23;7.10;;;5.15;;
68888;SDS011;55930;47.412;8.790;2023-06-01T11:45:05;6.97;;;5.05;;
68888;SDS011;55930;47.412;8.790;2023-06-01T11:48:25;9.18;;;4.60;;
68888;SDS011;55930;47.412;8.790;2023-06-01T11:51:45;7.40;;;4.75;;
68888;SDS011;55930;47.412;8.790;2023-06-01T11:55:06;6.38;;;4.03;;
68888;SDS011;55930;47.412;8.790;2023-06-01T11:58:27;7.72;;;4.95;;
68888;SDS011;55930;47.412;8.790;2023-06-01T12:01:49;6.57;;;4.40;;
68888;SDS011;55930;47.412;8.790;2023-06-01T12:05:12;11.73;;;4.68;;
68888;SDS011;55930;47.412;8.790;2023-06-01T12:08:34;9.70;;;4.53;;
68888;SDS011;55930;47.412;8.790;2023-06-01T12:11:59;14.40;;;5.00;;
68888;SDS011;55930;47.412;8.790;2023-06-01T12:15:20;7.00;;;4.47;;
68888;SDS011;55930;47.412;8.790;2023-06-01T12:18:40;6.97;;;4.45;;
68888;SDS011;55930;47.412;8.790;2023-06-01T12:22:03;5.82;;;4.22;;
68888;SDS011;55930;47.412;8.790;2023-06-01T12:25:24;8.07;;;4.38;;
68888;SDS011;55930;47.412;8.790;2023-06-01T12:28:49;7.63;;;4.57;;
68888;SDS011;55930;47.412;8.790;2023-06-01T12:32:16;6.40;;;4.85;;
68888;SDS011;55930;47.412;8.790;2023-06-01T12:35:47;8.35;;;4.80;;
68888;SDS011;55930;47.412;8.790;2023-06-01T12:39:09;6.78;;;4.82;;
68888;SDS011;55930;47.412;8.790;2023-06-01T12:42:37;8.60;;;4.60;;
68888;SDS011;55930;47.412;8.790;2023-06-01T12:45:59;9.85;;;4.90;;
68888;SDS011;55930;47.412;8.790;2023-06-01T12:49:20;9.82;;;4.90;;
68888;SDS011;55930;47.412;8.790;2023-06-01T12:52:41;7.55;;;4.55;;
68888;SDS011;55930;47.412;8.790;2023-06-01T12:56:05;8.55;;;4.40;;
68888;SDS011;55930;47.412;8.790;2023-06-01T12:59:26;8.95;;;4.57;;
68888;SDS011;55930;47.412;8.790;2023-06-01T13:02:47;9.05;;;5.03;;
68888;SDS011;55930;47.412;8.790;2023-06-01T13:06:10;14.15;;;5.10;;
68888;SDS011;55930;47.412;8.790;2023-06-01T13:09:32;7.50;;;4.72;;
68888;SDS011;55930;47.412;8.790;2023-06-01T13:12:52;6.13;;;3.80;;
68888;SDS011;55930;47.412;8.790;2023-06-01T13:16:13;10.07;;;5.03;;
68888;SDS011;55930;47.412;8.790;2023-06-01T13:19:34;7.10;;;4.18;;
68888;SDS011;55930;47.412;8.790;2023-06-01T13:22:54;9.55;;;4.40;;
68888;SDS011;55930;47.412;8.790;2023-06-01T13:26:14;8.07;;;4.85;;
68888;SDS011;55930;47.412;8.790;2023-06-01T13:29:35;8.73;;;4.35;;
68888;SDS011;55930;47.412;8.790;2023-06-01T13:32:56;5.10;;;3.95;;
68888;SDS011;55930;47.412;8.790;2023-06-01T13:36:16;7.07;;;3.95;;
68888;SDS011;55930;47.412;8.790;2023-06-01T13:39:37;10.95;;;4.47;;
68888;SDS011;55930;47.412;8.790;2023-06-01T13:42:57;8.05;;;4.63;;
68888;SDS011;55930;47.412;8.790;2023-06-01T13:46:18;7.68;;;4.38;;
68888;SDS011;55930;47.412;8.790;2023-06-01T13:49:39;6.20;;;4.82;;
68888;SDS011;55930;47.412;8.790;2023-06-01T13:52:59;8.32;;;4.22;;
68888;SDS011;55930;47.412;8.790;2023-06-01T13:56:20;9.45;;;5.30;;
68888;SDS011;55930;47.412;8.790;2023-06-01T13:59:41;7.32;;;4.47;;
68888;SDS011;55930;47.412;8.790;2023-06-01T14:03:01;6.30;;;4.38;;
68888;SDS011;55930;47.412;8.790;2023-06-01T14:06:22;9.32;;;4.30;;
68888;SDS011;55930;47.412;8.790;2023-06-01T14:09:44;4.63;;;3.70;;
68888;SDS011;55930;47.412;8.790;2023-06-01T14:13:13;6.75;;;4.53;;
68888;SDS011;55930;47.412;8.790;2023-06-01T14:16:36;7.22;;;4.43;;
68888;SDS011;55930;47.412;8.790;2023-06-01T14:19:57;8.80;;;4.75;;
68888;SDS011;55930;47.412;8.790;2023-06-01T14:23:17;6.55;;;4.68;;
68888;SDS011;55930;47.412;8.790;2023-06-01T14:26:37;7.40;;;4.57;;
68888;SDS011;55930;47.412;8.790;2023-06-01T14:29:58;6.03;;;4.13;;
68888;SDS011;55930;47.412;8.790;2023-06-01T14:33:20;10.10;;;4.20;;
68888;SDS011;55930;47.412;8.790;2023-06-01T14:36:41;8.60;;;4.88;;
68888;SDS011;55930;47.412;8.790;2023-06-01T14:40:02;6.25;;;4.35;;
68888;SDS011;55930;47.412;8.790;2023-06-01T14:43:22;8.55;;;4.38;;
68888;SDS011;55930;47.412;8.790;2023-06-01T14:46:43;12.23;;;5.38;;
68888;SDS011;55930;47.412;8.790;2023-06-01T14:50:05;6.55;;;4.13;;
68888;SDS011;55930;47.412;8.790;2023-06-01T14:53:26;6.78;;;4.07;;
68888;SDS011;55930;47.412;8.790;2023-06-01T14:56:49;8.43;;;5.13;;
68888;SDS011;55930;47.412;8.790;2023-06-01T15:00:09;6.72;;;3.83;;
68888;SDS011;55930;47.412;8.790;2023-06-01T15:03:31;9.02;;;3.80;;
68888;SDS011;55930;47.412;8.790;2023-06-01T15:06:52;8.90;;;4.72;;
68888;SDS011;55930;47.412;8.790;2023-06-01T15:10:12;4.43;;;3.60;;
68888;SDS011;55930;47.412;8.790;2023-06-01T15:13:35;6.32;;;4.03;;
68888;SDS011;55930;47.412;8.790;2023-06-01T15:16:57;8.20;;;3.35;;
68888;SDS011;55930;47.412;8.790;2023-06-01T15:20:17;5.82;;;3.67;;
68888;SDS011;55930;47.412;8.790;2023-06-01T15:23:38;4.85;;;3.22;;
68888;SDS011;55930;47.412;8.790;2023-06-01T15:27:00;4.10;;;3.40;;
68888;SDS011;55930;47.412;8.790;2023-06-01T15:30:21;5.95;;;3.80;;
68888;SDS011;55930;47.412;8.790;2023-06-01T15:33:41;6.38;;;3.38;;
68888;SDS011;55930;47.412;8.790;2023-06-01T15:37:02;4.25;;;3.60;;
68888;SDS011;55930;47.412;8.790;2023-06-01T15:40:22;6.10;;;3.78;;
68888;SDS011;55930;47.412;8.790;2023-06-01T15:44:01;9.48;;;4.28;;
68888;SDS011;55930;47.412;8.790;2023-06-01T15:47:25;5.78;;;3.97;;
68888;SDS011;55930;47.412;8.790;2023-06-01T15:50:45;8.05;;;4.28;;
68888;SDS011;55930;47.412;8.790;2023-06-01T15:54:05;9.50;;;4.45;;
68888;SDS011;55930;47.412;8.790;2023-06-01T15:57:28;7.38;;;3.92;;
68888;SDS011;55930;47.412;8.790;2023-06-01T16:00:49;11.55;;;5.13;;
68888;SDS011;55930;47.412;8.790;2023-06-01T16:04:09;6.78;;;4.28;;
68888;SDS011;55930;47.412;8.790;2023-06-01T16:07:30;7.60;;;4.05;;
68888;SDS011;55930;47.412;8.790;2023-06-01T16:10:50;7.13;;;3.80;;
68888;SDS011;55930;47.412;8.790;2023-06-01T16:14:11;8.57;;;4.55;;
68888;SDS011;55930;47.412;8.790;2023-06-01T16:17:31;5.30;;;3.60;;
68888;SDS011;55930;47.412;8.790;2023-06-01T16:20:54;15.38;;;8.93;;
68888;SDS011;55930;47.412;8.790;2023-06-01T16:24:17;8.43;;;4.28;;
68888;SDS011;55930;47.412;8.790;2023-06-01T16:27:37;8.02;;;4.65;;
68888;SDS011;55930;47.412;8.790;2023-06-01T16:30:57;6.40;;;3.60;;
68888;SDS011;55930;47.412;8.790;2023-06-01T16:34:18;6.53;;;3.67;;
68888;SDS011;55930;47.412;8.790;2023-06-01T16:37:38;4.40;;;3.40;;
68888;SDS011;55930;47.412;8.790;2023-06-01T16:40:59;8.82;;;4.10;;
68888;SDS011;55930;47.412;8.790;2023-06-01T16:44:19;7.00;;;4.38;;
68888;SDS011;55930;47.412;8.790;2023-06-01T16:47:40;8.43;;;4.38;;
68888;SDS011;55930;47.412;8.790;2023-06-01T16:51:00;9.68;;;7.53;;
68888;SDS011;55930;47.412;8.790;2023-06-01T16:54:22;7.35;;;5.47;;
68888;SDS011;55930;47.412;8.790;2023-06-01T16:57:45;10.95;;;4.22;;
68888;SDS011;55930;47.412;8.790;2023-06-01T17:01:06;6.10;;;4.60;;
68888;SDS011;55930;47.412;8.790;2023-06-01T17:04:29;6.65;;;3.90;;
68888;SDS011;55930;47.412;8.790;2023-06-01T17:07:50;7.43;;;4.18;;
68888;SDS011;55930;47.412;8.790;2023-06-01T17:11:13;6.20;;;3.95;;
68888;SDS011;55930;47.412;8.790;2023-06-01T17:14:36;5.88;;;3.85;;
68888;SDS011;55930;47.412;8.790;2023-06-01T17:17:59;8.88;;;4.20;;
68888;SDS011;55930;47.412;8.790;2023-06-01T17:21:21;6.20;;;4.63;;
68888;SDS011;55930;47.412;8.790;2023-06-01T17:24:42;6.20;;;4.65;;
68888;SDS011;55930;47.412;8.790;2023-06-01T17:28:02;7.57;;;4.35;;
68888;SDS011;55930;47.412;8.790;2023-06-01T17:31:23;8.23;;;4.60;;
68888;SDS011;55930;47.412;8.790;2023-06-01T17:34:43;8.82;;;3.85;;
68888;SDS011;55930;47.412;8.790;2023-06-01T17:38:04;7.65;;;4.57;;
68888;SDS011;55930;47.412;8.790;2023-06-01T17:41:24;8.77;;;3.95;;
68888;SDS011;55930;47.412;8.790;2023-06-01T17:44:45;5.53;;;3.95;;
68888;SDS011;55930;47.412;8.790;2023-06-01T17:48:05;9.23;;;4.38;;
68888;SDS011;55930;47.412;8.790;2023-06-01T17:51:26;8.02;;;4.03;;
68888;SDS011;55930;47.412;8.790;2023-06-01T17:54:46;9.63;;;4.47;;
68888;SDS011;55930;47.412;8.790;2023-06-01T17:58:06;7.22;;;4.15;;
68888;SDS011;55930;47.412;8.790;2023-06-01T18:01:27;7.50;;;4.68;;
68888;SDS011;55930;47.412;8.790;2023-06-01T18:04:50;6.80;;;4.22;;
68888;SDS011;55930;47.412;8.790;2023-06-01T18:08:11;8.63;;;4.20;;
68888;SDS011;55930;47.412;8.790;2023-06-01T18:11:31;8.93;;;4.30;;
68888;SDS011;55930;47.412;8.790;2023-06-01T18:14:54;6.57;;;3.95;;
68888;SDS011;55930;47.412;8.790;2023-06-01T18:18:17;6.38;;;4.00;;
68888;SDS011;55930;47.412;8.790;2023-06-01T18:21:37;5.43;;;4.15;;
68888;SDS011;55930;47.412;8.790;2023-06-01T18:24:58;6.78;;;4.32;;
68888;SDS011;55930;47.412;8.790;2023-06-01T18:28:20;9.15;;;4.53;;
68888;SDS011;55930;47.412;8.790;2023-06-01T18:31:41;6.85;;;4.97;;
68888;SDS011;55930;47.412;8.790;2023-06-01T18:35:01;5.78;;;4.13;;
68888;SDS011;55930;47.412;8.790;2023-06-01T18:38:22;7.47;;;4.55;;
68888;SDS011;55930;47.412;8.790;2023-06-01T18:41:43;8.23;;;4.35;;
68888;SDS011;55930;47.412;8.790;2023-06-01T18:45:03;7.07;;;4.75;;
68888;SDS011;55930;47.412;8.790;2023-06-01T18:48:25;9.27;;;5.55;;
68888;SDS011;55930;47.412;8.790;2023-06-01T18:51:45;7.70;;;5.25;;
68888;SDS011;55930;47.412;8.790;2023-06-01T18:55:06;6.93;;;4.80;;
68888;SDS011;55930;47.412;8.790;2023-06-01T18:58:29;10.07;;;4.57;;
68888;SDS011;55930;47.412;8.790;2023-06-01T19:01:49;8.20;;;4.25;;
68888;SDS011;55930;47.412;8.790;2023-06-01T19:05:10;8.27;;;5.45;;
68888;SDS011;55930;47.412;8.790;2023-06-01T19:08:33;9.18;;;4.72;;
68888;SDS011;55930;47.412;8.790;2023-06-01T19:11:53;7.72;;;4.78;;
68888;SDS011;55930;47.412;8.790;2023-06-01T19:15:13;7.63;;;4.82;;
68888;SDS011;55930;47.412;8.790;2023-06-01T19:18:34;8.25;;;5.07;;
68888;SDS011;55930;47.412;8.790;2023-06-01T19:21:54;8.95;;;4.65;;
68888;SDS011;55930;47.412;8.790;2023-06-01T19:25:20;5.82;;;4.38;;
68888;SDS011;55930;47.412;8.790;2023-06-01T19:28:40;9.95;;;4.65;;
68888;SDS011;55930;47.412;8.790;2023-06-01T19:32:01;7.75;;;5.25;;
68888;SDS011;55930;47.412;8.790;2023-06-01T19:35:26;10.55;;;5.32;;
68888;SDS011;55930;47.412;8.790;2023-06-01T19:38:49;6.38;;;4.80;;
68888;SDS011;55930;47.412;8.790;2023-06-01T19:45:38;12.40;;;6.00;;
68888;SDS011;55930;47.412;8.790;2023-06-01T19:48:59;8.07;;;4.70;;
68888;SDS011;55930;47.412;8.790;2023-06-01T19:52:31;10.77;;;5.10;;
68888;SDS011;55930;47.412;8.790;2023-06-01T19:56:00;8.10;;;4.80;;
68888;SDS011;55930;47.412;8.790;2023-06-01T19:59:24;8.15;;;5.20;;
68888;SDS011;55930;47.412;8.790;2023-06-01T20:02:48;8.75;;;7.22;;
68888;SDS011;55930;47.412;8.790;2023-06-01T20:06:09;8.93;;;5.38;;
68888;SDS011;55930;47.412;8.790;2023-06-01T20:09:36;12.15;;;7.03;;
68888;SDS011;55930;47.412;8.790;2023-06-01T20:12:57;9.25;;;5.03;;
68888;SDS011;55930;47.412;8.790;2023-06-01T20:16:19;9.68;;;5.40;;
68888;SDS011;55930;47.412;8.790;2023-06-01T20:26:26;8.43;;;4.90;;
68888;SDS011;55930;47.412;8.790;2023-06-01T20:33:09;7.25;;;5.28;;
68888;SDS011;55930;47.412;8.790;2023-06-01T20:36:32;10.88;;;5.72;;
68888;SDS011;55930;47.412;8.790;2023-06-01T20:43:15;11.57;;;6.10;;
68888;SDS011;55930;47.412;8.790;2023-06-01T20:46:40;9.65;;;5.60;;
68888;SDS011;55930;47.412;8.790;2023-06-01T20:50:03;8.15;;;6.40;;
68888;SDS011;55930;47.412;8.790;2023-06-01T20:56:47;13.47;;;6.60;;
68888;SDS011;55930;47.412;8.790;2023-06-01T21:00:12;10.68;;;7.07;;
68888;SDS011;55930;47.412;8.790;2023-06-01T21:03:33;13.02;;;6.65;;
68888;SDS011;55930;47.412;8.790;2023-06-01T21:06:58;9.45;;;5.90;;
68888;SDS011;55930;47.412;8.790;2023-06-01T21:13:38;9.10;;;7.03;;
68888;SDS011;55930;47.412;8.790;2023-06-01T21:17:03;9.23;;;6.40;;
68888;SDS011;55930;47.412;8.790;2023-06-01T21:20:23;9.10;;;5.63;;
68888;SDS011;55930;47.412;8.790;2023-06-01T21:23:47;11.80;;;6.00;;
68888;SDS011;55930;47.412;8.790;2023-06-01T21:30:29;8.93;;;6.57;;
68888;SDS011;55930;47.412;8.790;2023-06-01T21:33:50;7.30;;;5.85;;